createdAt,value
2023-03-11T00:00:46.945Z,97981.92
2023-03-11T00:03:29.180Z,97975.86
2023-03-11T00:06:01.524Z,97982.92
2023-03-11T00:08:30.144Z,97982.52
2023-03-11T00:11:00.737Z,97980.73
2023-03-11T00:13:29.870Z,97979.69
2023-03-11T00:15:59.786Z,97976.64
2023-03-11T00:18:31.407Z,97975.45
2023-03-11T00:21:00.332Z,97972.80
2023-03-11T00:23:29.032Z,97970.51
2023-03-11T00:25:57.138Z,97970.56
2023-03-11T00:28:26.079Z,97968.21
2023-03-11T00:30:54.495Z,97970.83
2023-03-11T00:33:22.516Z,97969.84
2023-03-11T00:35:50.857Z,97968.97
2023-03-11T00:38:20.888Z,97969.42
2023-03-11T00:40:49.548Z,97962.90
2023-03-11T00:43:17.654Z,97965.06
2023-03-11T00:45:45.675Z,97960.94
2023-03-11T00:48:14.995Z,97957.98
2023-03-11T00:50:43.525Z,97955.75
2023-03-11T00:53:12.133Z,97953.13
2023-03-11T00:55:41.288Z,97946.18
2023-03-11T00:58:12.442Z,97944.73
2023-03-11T01:00:49.552Z,97942.23
2023-03-11T01:03:17.349Z,97940.21
2023-03-11T01:05:46.491Z,97943.77
2023-03-11T01:08:14.367Z,97942.65
2023-03-11T01:10:42.128Z,97938.46
2023-03-11T01:13:09.932Z,97937.89
2023-03-11T01:15:38.090Z,97933.60
2023-03-11T01:18:07.229Z,97938.48
2023-03-11T01:20:37.262Z,97937.70
2023-03-11T01:23:09.037Z,97936.55
2023-03-11T01:25:37.156Z,97933.04
2023-03-11T01:28:06.686Z,97929.68
2023-03-11T01:30:36.764Z,97932.88
2023-03-11T01:33:06.010Z,97926.59
2023-03-11T01:35:35.526Z,97929.20
2023-03-11T01:38:03.385Z,97931.14
2023-03-11T01:40:42.913Z,97931.48
2023-03-11T01:43:47.943Z,97931.73
2023-03-11T01:46:25.886Z,97931.44
2023-03-11T01:48:59.157Z,97931.41
2023-03-11T01:51:38.375Z,97931.80
2023-03-11T01:54:14.579Z,97929.48
2023-03-11T01:56:43.022Z,97924.44
2023-03-11T01:59:14.872Z,97924.77
2023-03-11T02:02:23.084Z,97923.70
2023-03-11T02:04:51.834Z,97925.29
2023-03-11T02:07:19.727Z,97925.34
2023-03-11T02:09:48.766Z,97925.70
2023-03-11T02:12:16.817Z,97922.09
2023-03-11T02:14:51.176Z,97925.41
2023-03-11T02:17:19.186Z,97922.70
2023-03-11T02:20:12.638Z,97923.52
2023-03-11T02:22:42.805Z,97924.70
2023-03-11T02:25:27.180Z,97923.38
2023-03-11T02:27:58.964Z,97925.52
2023-03-11T02:30:30.549Z,97928.16
2023-03-11T02:32:59.601Z,97927.58
2023-03-11T02:35:30.158Z,97929.16
2023-03-11T02:37:58.152Z,97927.09
2023-03-11T02:40:45.177Z,97939.10
2023-03-11T02:43:16.157Z,97943.52
2023-03-11T02:45:46.770Z,97949.09
2023-03-11T02:48:16.928Z,97953.67
2023-03-11T02:50:46.950Z,97952.77
2023-03-11T02:53:16.026Z,97955.23
2023-03-11T02:55:43.824Z,97955.43
2023-03-11T02:58:11.612Z,97960.15
2023-03-11T03:00:39.631Z,97961.88
2023-03-11T03:03:10.612Z,97964.58
2023-03-11T03:05:39.400Z,97962.55
2023-03-11T03:08:07.643Z,97969.36
2023-03-11T03:10:35.671Z,97971.90
2023-03-11T03:13:04.384Z,97979.29
2023-03-11T03:15:32.836Z,97982.36
2023-03-11T03:18:01.353Z,97983.69
2023-03-11T03:20:29.302Z,97984.88
2023-03-11T03:22:59.534Z,97987.61
2023-03-11T03:25:29.973Z,97992.29
2023-03-11T03:27:59.412Z,97993.10
2023-03-11T03:30:29.451Z,97998.28
2023-03-11T03:32:57.365Z,98002.64
2023-03-11T03:35:25.352Z,98004.65
2023-03-11T03:38:13.777Z,98005.66
2023-03-11T03:40:46.389Z,98007.02
2023-03-11T03:43:15.326Z,98011.09
2023-03-11T03:45:44.722Z,98012.08
2023-03-11T03:48:12.918Z,98015.99
2023-03-11T03:50:43.959Z,98022.64
2023-03-11T03:53:14.108Z,98021.68
2023-03-11T03:55:42.777Z,98029.80
2023-03-11T03:58:11.016Z,98028.86
2023-03-11T04:00:39.597Z,98036.91
2023-03-11T04:03:07.559Z,98043.98
2023-03-11T04:05:41.633Z,98058.61
2023-03-11T04:08:09.693Z,98073.22
2023-03-11T04:10:37.556Z,98082.25
2023-03-11T04:13:05.985Z,98090.77
2023-03-11T04:15:34.010Z,98100.85
2023-03-11T04:18:02.110Z,98100.13
2023-03-11T04:20:29.960Z,98106.27
2023-03-11T04:22:57.847Z,98115.09
2023-03-11T04:25:26.029Z,98116.16
2023-03-11T04:27:54.410Z,98121.87
2023-03-11T04:30:23.217Z,98124.91
2023-03-11T04:32:54.162Z,98130.65
2023-03-11T04:35:22.568Z,98131.79
2023-03-11T04:37:50.947Z,98134.77
2023-03-11T04:40:18.905Z,98138.20
2023-03-11T04:42:46.739Z,98140.86
2023-03-11T04:45:15.212Z,98147.33
2023-03-11T04:47:44.044Z,98153.96
2023-03-11T04:50:12.122Z,98161.28
2023-03-11T04:52:42.958Z,98168.02
2023-03-11T04:55:11.554Z,98175.77
2023-03-11T04:57:43.874Z,98186.92
2023-03-11T05:00:15.651Z,98197.12
2023-03-11T05:02:45.586Z,98204.27
2023-03-11T05:05:13.940Z,98214.67
2023-03-11T05:07:42.759Z,98225.70
2023-03-11T05:10:11.634Z,98225.09
2023-03-11T05:12:39.846Z,98231.55
2023-03-11T05:15:08.635Z,98241.73
2023-03-11T05:17:36.645Z,98249.96
2023-03-11T05:20:07.685Z,98256.52
2023-03-11T05:22:36.632Z,98263.44
2023-03-11T05:25:06.420Z,98267.46
2023-03-11T05:27:34.644Z,98273.77
2023-03-11T05:30:02.526Z,98284.42
2023-03-11T05:32:31.800Z,98291.11
2023-03-11T05:34:59.700Z,98299.80
2023-03-11T05:37:28.377Z,98304.70
2023-03-11T05:39:56.484Z,98312.15
2023-03-11T05:42:24.441Z,98319.18
2023-03-11T05:44:54.281Z,98325.42
2023-03-11T05:47:23.360Z,98337.67
2023-03-11T05:49:51.348Z,98343.86
2023-03-11T05:52:20.157Z,98354.29
2023-03-11T05:54:52.431Z,98362.86
2023-03-11T05:57:22.722Z,98372.06
2023-03-11T05:59:50.785Z,98382.78
2023-03-11T06:02:20.965Z,98397.78
2023-03-11T06:04:49.216Z,98402.02
2023-03-11T06:07:17.797Z,98417.45
2023-03-11T06:09:50.234Z,98427.67
2023-03-11T06:12:18.906Z,98435.17
2023-03-11T06:14:55.876Z,98446.70
2023-03-11T06:17:23.742Z,98453.02
2023-03-11T06:19:51.568Z,98463.21
2023-03-11T06:22:19.527Z,98468.98
2023-03-11T06:24:47.810Z,98481.01
2023-03-11T06:27:15.830Z,98486.32
2023-03-11T06:29:43.935Z,98499.00
2023-03-11T06:32:12.568Z,98508.70
2023-03-11T06:34:40.367Z,98515.81
2023-03-11T06:37:08.429Z,98526.00
2023-03-11T06:39:36.310Z,98539.65
2023-03-11T06:42:04.409Z,98555.94
2023-03-11T06:44:33.315Z,98559.59
2023-03-11T06:47:03.346Z,98569.80
2023-03-11T06:49:31.800Z,98584.86
2023-03-11T06:51:59.733Z,98586.63
2023-03-11T06:54:27.732Z,98593.73
2023-03-11T06:56:56.274Z,98615.61
2023-03-11T06:59:24.462Z,98625.17
2023-03-11T07:01:53.965Z,98632.19
2023-03-11T07:04:22.247Z,98645.64
2023-03-11T07:06:50.294Z,98655.33
2023-03-11T07:09:23.019Z,98668.17
2023-03-11T07:11:52.397Z,98674.53
2023-03-11T07:14:25.788Z,98686.44
2023-03-11T07:16:56.118Z,98700.99
2023-03-11T07:19:29.079Z,98709.67
2023-03-11T07:21:57.235Z,98712.34
2023-03-11T07:24:25.038Z,98731.89
2023-03-11T07:26:53.078Z,98735.92
2023-03-11T07:29:21.160Z,98743.39
2023-03-11T07:31:49.659Z,98752.94
2023-03-11T07:34:17.657Z,98756.88
2023-03-11T07:36:45.539Z,98763.56
2023-03-11T07:39:16.279Z,98773.63
2023-03-11T07:41:44.902Z,98781.83
2023-03-11T07:44:14.888Z,98788.55
2023-03-11T07:46:44.102Z,98798.33
2023-03-11T07:49:12.615Z,98802.41
2023-03-11T07:51:42.497Z,98809.77
2023-03-11T07:54:12.061Z,98819.38
2023-03-11T07:56:40.133Z,98824.77
2023-03-11T07:59:08.205Z,98836.95
2023-03-11T08:01:36.728Z,98843.80
2023-03-11T08:04:07.688Z,98854.48
2023-03-11T08:06:37.336Z,98860.40
2023-03-11T08:09:08.934Z,98870.98
2023-03-11T08:11:37.476Z,98877.88
2023-03-11T08:14:06.438Z,98883.10
2023-03-11T08:16:34.472Z,98891.39
2023-03-11T08:19:02.259Z,98903.83
2023-03-11T08:21:32.463Z,98910.23
2023-03-11T08:24:02.239Z,98919.91
2023-03-11T08:26:31.396Z,98928.28
2023-03-11T08:28:59.648Z,98935.05
2023-03-11T08:31:30.737Z,98946.01
2023-03-11T08:34:08.020Z,98952.16
2023-03-11T08:36:36.496Z,98956.40
2023-03-11T08:39:04.788Z,98960.48
2023-03-11T08:41:33.391Z,98965.15
2023-03-11T08:44:01.743Z,98973.03
2023-03-11T08:46:35.551Z,98979.66
2023-03-11T08:49:05.452Z,98986.08
2023-03-11T08:51:35.043Z,98990.23
2023-03-11T08:54:04.011Z,98998.66
2023-03-11T08:56:31.908Z,99004.17
2023-03-11T08:58:59.862Z,99011.57
2023-03-11T09:01:29.603Z,99018.30
2023-03-11T09:03:58.129Z,99032.02
2023-03-11T09:06:26.385Z,99037.84
2023-03-11T09:08:54.473Z,99043.20
2023-03-11T09:11:22.841Z,99052.83
2023-03-11T09:13:51.542Z,99059.03
2023-03-11T09:16:24.943Z,99074.39
2023-03-11T09:18:53.154Z,99077.77
2023-03-11T09:21:21.234Z,99085.23
2023-03-11T09:23:49.304Z,99093.76
2023-03-11T09:26:17.243Z,99095.14
2023-03-11T09:28:49.188Z,99103.24
2023-03-11T09:31:18.378Z,99108.24
2023-03-11T09:33:47.772Z,99110.73
2023-03-11T09:36:19.334Z,99111.62
2023-03-11T09:38:48.213Z,99119.69
2023-03-11T09:41:55.669Z,99127.05
2023-03-11T09:44:37.213Z,99137.70
2023-03-11T09:47:26.716Z,99148.54
2023-03-11T09:50:00.584Z,99155.77
2023-03-11T09:52:58.835Z,99162.65
2023-03-11T09:55:43.236Z,99174.18
2023-03-11T09:58:16.714Z,99182.77
2023-03-11T10:00:45.331Z,99184.12
2023-03-11T10:03:37.330Z,99194.50
2023-03-11T10:06:31.675Z,99198.16
2023-03-11T10:09:03.162Z,99208.04
2023-03-11T10:12:08.443Z,99214.64
2023-03-11T10:14:49.097Z,99222.60
2023-03-11T10:17:23.035Z,99220.23
2023-03-11T10:20:13.114Z,99234.02
2023-03-11T10:23:22.999Z,99242.88
2023-03-11T10:26:28.095Z,99248.17
2023-03-11T10:29:14.749Z,99260.14
2023-03-11T10:31:50.734Z,99257.80
2023-03-11T10:34:44.956Z,99263.64
2023-03-11T10:37:46.588Z,99266.11
2023-03-11T10:40:33.393Z,99275.55
2023-03-11T10:43:11.422Z,99284.57
2023-03-11T10:45:44.703Z,99295.81
2023-03-11T10:48:18.014Z,99296.04
2023-03-11T10:50:51.237Z,99303.90
2023-03-11T10:53:21.134Z,99308.14
2023-03-11T10:55:52.220Z,99318.81
2023-03-11T10:58:48.735Z,99319.92
2023-03-11T11:01:18.464Z,99330.20
2023-03-11T11:03:50.316Z,99335.48
2023-03-11T11:06:23.095Z,99336.11
2023-03-11T11:09:19.584Z,99337.60
2023-03-11T11:12:01.199Z,99341.20
2023-03-11T11:14:50.246Z,99347.05
2023-03-11T11:17:24.066Z,99356.61
2023-03-11T11:19:53.390Z,99362.92
2023-03-11T11:22:23.287Z,99364.67
2023-03-11T11:24:54.627Z,99370.58
2023-03-11T11:27:24.019Z,99374.60
2023-03-11T11:30:16.323Z,99377.59
2023-03-11T11:32:44.501Z,99381.79
2023-03-11T11:35:14.066Z,99384.70
2023-03-11T11:37:46.443Z,99389.95
2023-03-11T11:40:19.725Z,99394.06
2023-03-11T11:43:14.204Z,99397.55
2023-03-11T11:46:06.053Z,99397.10
2023-03-11T11:48:47.313Z,99400.76
2023-03-11T11:51:40.393Z,99401.42
2023-03-11T11:54:17.639Z,99403.48
2023-03-11T11:56:46.148Z,99411.89
2023-03-11T11:59:21.723Z,99412.09
2023-03-11T12:02:05.681Z,99417.42
2023-03-11T12:05:21.461Z,99422.08
2023-03-11T12:07:52.136Z,99420.95
2023-03-11T12:10:41.857Z,99425.85
2023-03-11T12:13:29.200Z,99436.52
2023-03-11T12:16:23.419Z,99441.45
2023-03-11T12:18:57.441Z,99456.62
2023-03-11T12:21:53.234Z,99459.91
2023-03-11T12:24:48.574Z,99468.48
2023-03-11T12:27:40.902Z,99468.88
2023-03-11T12:30:23.403Z,99470.36
2023-03-11T12:32:57.103Z,99480.27
2023-03-11T12:35:31.102Z,99482.95
2023-03-11T12:38:01.668Z,99487.23
2023-03-11T12:40:44.809Z,99483.98
2023-03-11T12:43:30.836Z,99493.13
2023-03-11T12:45:59.836Z,99499.50
2023-03-11T12:48:27.678Z,99505.27
2023-03-11T12:50:59.599Z,99506.31
2023-03-11T12:53:48.484Z,99514.08
2023-03-11T12:56:44.851Z,99516.82
2023-03-11T12:59:34.776Z,99519.41
2023-03-11T13:02:39.007Z,99523.62
2023-03-11T13:05:41.377Z,99527.40
2023-03-11T13:08:15.406Z,99536.84
2023-03-11T13:10:45.698Z,99548.09
2023-03-11T13:13:25.617Z,99554.34
2023-03-11T13:15:53.550Z,99560.15
2023-03-11T13:18:30.581Z,99567.58
2023-03-11T13:21:00.334Z,99575.96
2023-03-11T13:23:37.794Z,99575.42
2023-03-11T13:26:30.348Z,99573.83
2023-03-11T13:29:13.700Z,99581.44
2023-03-11T13:32:07.258Z,99584.70
2023-03-11T13:34:44.350Z,99590.02
2023-03-11T13:37:21.336Z,99600.19
2023-03-11T13:39:58.413Z,99600.41
2023-03-11T13:42:35.701Z,99609.52
2023-03-11T13:45:06.772Z,99613.50
2023-03-11T13:47:37.001Z,99619.82
2023-03-11T13:50:34.635Z,99622.66
2023-03-11T13:53:08.077Z,99624.27
2023-03-11T13:55:41.348Z,99630.80
2023-03-11T13:58:24.334Z,99630.63
2023-03-11T14:00:58.961Z,99641.29
2023-03-11T14:03:32.554Z,99650.29
2023-03-11T14:06:11.895Z,99658.77
2023-03-11T14:08:40.171Z,99663.61
2023-03-11T14:11:08.010Z,99666.45
2023-03-11T14:13:43.217Z,99673.35
2023-03-11T14:16:19.041Z,99677.38
2023-03-11T14:19:16.797Z,99677.04
2023-03-11T14:21:47.214Z,99684.67
2023-03-11T14:24:29.490Z,99691.71
2023-03-11T14:27:01.129Z,99695.67
2023-03-11T14:29:42.132Z,99698.71
2023-03-11T14:32:26.287Z,99702.20
2023-03-11T14:34:54.852Z,99713.45
2023-03-11T14:37:35.302Z,99713.75
2023-03-11T14:40:05.008Z,99718.19
2023-03-11T14:42:41.325Z,99721.10
2023-03-11T14:45:17.250Z,99723.05
2023-03-11T14:48:10.700Z,99723.50
2023-03-11T14:50:38.960Z,99732.17
2023-03-11T14:53:14.073Z,99732.14
2023-03-11T14:55:51.280Z,99737.98
2023-03-11T14:58:34.561Z,99735.66
2023-03-11T15:01:10.226Z,99732.81
2023-03-11T15:03:44.870Z,99745.99
2023-03-11T15:06:17.207Z,99746.50
2023-03-11T15:08:48.768Z,99749.19
2023-03-11T15:11:16.599Z,99752.34
2023-03-11T15:13:47.542Z,99753.11
2023-03-11T15:16:41.483Z,99754.40
2023-03-11T15:19:27.729Z,99759.60
2023-03-11T15:22:05.777Z,99756.42
2023-03-11T15:24:34.872Z,99766.09
2023-03-11T15:27:08.765Z,99770.10
2023-03-11T15:29:37.338Z,99772.33
2023-03-11T15:32:44.552Z,99775.48
2023-03-11T15:35:19.431Z,99784.19
2023-03-11T15:37:49.122Z,99795.03
2023-03-11T15:40:44.092Z,99803.55
2023-03-11T15:43:16.068Z,99800.52
2023-03-11T15:45:44.220Z,99800.67
2023-03-11T15:48:13.831Z,99803.75
2023-03-11T15:50:55.285Z,99809.08
2023-03-11T15:53:25.501Z,99810.63
2023-03-11T15:56:06.397Z,99818.20
2023-03-11T15:58:37.595Z,99816.34
2023-03-11T16:01:05.697Z,99820.13
2023-03-11T16:03:33.718Z,99823.42
2023-03-11T16:06:01.495Z,99823.36
2023-03-11T16:08:29.396Z,99825.98
2023-03-11T16:10:58.252Z,99831.55
2023-03-11T16:13:26.125Z,99831.48
2023-03-11T16:15:54.126Z,99837.91
2023-03-11T16:18:21.920Z,99840.17
2023-03-11T16:20:53.237Z,99843.11
2023-03-11T16:23:25.316Z,99846.97
2023-03-11T16:26:00.925Z,99849.30
2023-03-11T16:28:29.431Z,99852.10
2023-03-11T16:30:57.614Z,99856.54
2023-03-11T16:33:26.204Z,99856.86
2023-03-11T16:35:54.146Z,99858.81
2023-03-11T16:38:23.301Z,99862.45
2023-03-11T16:41:02.338Z,99865.30
2023-03-11T16:43:31.813Z,99871.27
2023-03-11T16:45:59.719Z,99878.65
2023-03-11T16:48:27.884Z,99878.52
2023-03-11T16:50:55.782Z,99884.39
2023-03-11T16:53:25.228Z,99888.30
2023-03-11T16:55:53.853Z,99888.64
2023-03-11T16:58:21.789Z,99893.77
2023-03-11T17:00:49.816Z,99893.77
2023-03-11T17:03:21.533Z,99894.11
2023-03-11T17:05:49.978Z,99898.60
2023-03-11T17:08:18.446Z,99906.92
2023-03-11T17:10:46.800Z,99913.73
2023-03-11T17:13:17.015Z,99919.23
2023-03-11T17:15:57.461Z,99926.00
2023-03-11T17:18:25.589Z,99927.23
2023-03-11T17:20:53.850Z,99931.26
2023-03-11T17:23:21.921Z,99937.36
2023-03-11T17:25:49.868Z,99939.95
2023-03-11T17:28:17.820Z,99941.14
2023-03-11T17:30:45.768Z,99945.72
2023-03-11T17:33:13.676Z,99946.95
2023-03-11T17:35:41.503Z,99954.39
2023-03-11T17:38:09.420Z,99956.82
2023-03-11T17:40:37.901Z,99961.10
2023-03-11T17:43:05.920Z,99966.23
2023-03-11T17:45:34.174Z,99965.90
2023-03-11T17:48:02.012Z,99969.11
2023-03-11T17:50:29.983Z,99974.40
2023-03-11T17:52:58.041Z,99973.36
2023-03-11T17:55:26.440Z,99978.83
2023-03-11T17:57:54.251Z,99980.89
2023-03-11T18:00:22.299Z,99981.85
2023-03-11T18:02:51.502Z,99989.80
2023-03-11T18:05:20.522Z,99992.58
2023-03-11T18:07:48.479Z,99998.52
2023-03-11T18:10:16.960Z,100003.14
2023-03-11T18:12:46.644Z,100006.58
2023-03-11T18:15:19.032Z,100010.52
2023-03-11T18:17:47.574Z,100013.20
2023-03-11T18:20:16.527Z,100017.00
2023-03-11T18:22:46.759Z,100020.17
2023-03-11T18:25:15.369Z,100022.88
2023-03-11T18:27:44.054Z,100024.16
2023-03-11T18:30:13.184Z,100027.59
2023-03-11T18:32:41.681Z,100029.59
2023-03-11T18:35:10.260Z,100031.70
2023-03-11T18:37:38.087Z,100034.60
2023-03-11T18:40:07.233Z,100034.85
2023-03-11T18:42:35.544Z,100040.88
2023-03-11T18:45:04.733Z,100037.51
2023-03-11T18:47:35.791Z,100045.38
2023-03-11T18:50:05.013Z,100049.22
2023-03-11T18:52:32.991Z,100051.95
2023-03-11T18:55:01.014Z,100055.08
2023-03-11T18:57:28.878Z,100056.30
2023-03-11T18:59:56.645Z,100053.39
2023-03-11T19:02:26.181Z,100058.11
2023-03-11T19:04:54.398Z,100059.21
2023-03-11T19:07:22.787Z,100062.55
2023-03-11T19:09:50.709Z,100062.68
2023-03-11T19:12:18.551Z,100065.30
2023-03-11T19:14:46.437Z,100069.73
2023-03-11T19:17:16.478Z,100074.33
2023-03-11T19:19:44.410Z,100074.39
2023-03-11T19:22:12.328Z,100076.52
2023-03-11T19:24:40.641Z,100086.09
2023-03-11T19:27:08.576Z,100079.30
2023-03-11T19:29:36.401Z,100085.49
2023-03-11T19:32:05.065Z,100084.63
2023-03-11T19:34:33.011Z,100086.96
2023-03-11T19:37:00.852Z,100091.45
2023-03-11T19:39:28.805Z,100096.64
2023-03-11T19:41:58.899Z,100098.65
2023-03-11T19:44:26.901Z,100101.09
2023-03-11T19:46:54.701Z,100101.38
2023-03-11T19:49:22.820Z,100110.96
2023-03-11T19:51:53.030Z,100106.44
2023-03-11T19:54:20.986Z,100109.14
2023-03-11T19:56:49.244Z,100117.60
2023-03-11T19:59:17.289Z,100111.45
2023-03-11T20:01:45.399Z,100112.48
2023-03-11T20:04:15.142Z,100111.37
2023-03-11T20:06:44.230Z,100119.04
2023-03-11T20:09:13.216Z,100120.21
2023-03-11T20:11:41.211Z,100122.95
2023-03-11T20:14:10.388Z,100121.08
2023-03-11T20:16:38.635Z,100123.88
2023-03-11T20:19:07.432Z,100122.23
2023-03-11T20:21:39.434Z,100122.59
2023-03-11T20:24:08.975Z,100126.14
2023-03-11T20:26:37.649Z,100128.22
2023-03-11T20:29:06.000Z,100130.23
2023-03-11T20:31:34.668Z,100128.84
2023-03-11T20:34:03.146Z,100132.98
2023-03-11T20:36:33.210Z,100134.06
2023-03-11T20:39:02.338Z,100133.43
2023-03-11T20:41:34.745Z,100136.38
2023-03-11T20:44:03.893Z,100139.59
2023-03-11T20:46:35.108Z,100140.10
2023-03-11T20:49:03.736Z,100140.24
2023-03-11T20:51:31.578Z,100138.79
2023-03-11T20:53:59.542Z,100136.81
2023-03-11T20:56:27.984Z,100142.92
2023-03-11T20:58:59.291Z,100140.36
2023-03-11T21:01:30.543Z,100140.69
2023-03-11T21:04:01.565Z,100140.39
2023-03-11T21:06:41.204Z,100139.45
2023-03-11T21:09:14.661Z,100141.63
2023-03-11T21:11:42.883Z,100142.83
2023-03-11T21:14:14.728Z,100139.76
2023-03-11T21:16:42.851Z,100140.26
2023-03-11T21:19:13.609Z,100140.52
2023-03-11T21:21:41.690Z,100139.59
2023-03-11T21:24:11.416Z,100136.58
2023-03-11T21:26:39.434Z,100139.59
2023-03-11T21:29:08.029Z,100135.10
2023-03-11T21:31:35.959Z,100134.16
2023-03-11T21:34:03.809Z,100136.48
2023-03-11T21:36:31.808Z,100137.55
2023-03-11T21:39:01.512Z,100135.59
2023-03-11T21:41:31.078Z,100138.52
2023-03-11T21:43:59.150Z,100134.35
2023-03-11T21:46:30.609Z,100133.11
2023-03-11T21:48:59.356Z,100134.73
2023-03-11T21:51:27.664Z,100134.37
2023-03-11T21:53:56.649Z,100137.54
2023-03-11T21:56:25.146Z,100133.34
2023-03-11T21:58:53.945Z,100130.90
2023-03-11T22:01:22.471Z,100134.03
2023-03-11T22:03:50.894Z,100131.02
2023-03-11T22:06:18.925Z,100127.29
2023-03-11T22:08:47.171Z,100124.19
2023-03-11T22:11:19.055Z,100129.02
2023-03-11T22:13:49.353Z,100132.16
2023-03-11T22:16:19.078Z,100131.40
2023-03-11T22:18:47.771Z,100138.17
2023-03-11T22:21:16.771Z,100138.95
2023-03-11T22:23:45.348Z,100139.03
2023-03-11T22:26:14.348Z,100142.38
2023-03-11T22:28:42.389Z,100135.98
2023-03-11T22:31:13.796Z,100139.55
2023-03-11T22:33:41.827Z,100134.42
2023-03-11T22:36:10.147Z,100136.23
2023-03-11T22:38:41.390Z,100137.27
2023-03-11T22:41:10.685Z,100130.20
2023-03-11T22:43:39.461Z,100128.52
2023-03-11T22:46:07.577Z,100124.39
2023-03-11T22:48:35.822Z,100126.23
2023-03-11T22:51:04.049Z,100124.11
2023-03-11T22:53:31.900Z,100125.80
2023-03-11T22:55:59.783Z,100124.60
2023-03-11T22:58:27.715Z,100124.86
2023-03-11T23:00:55.500Z,100121.86
2023-03-11T23:03:23.338Z,100119.20
2023-03-11T23:05:51.138Z,100117.41
2023-03-11T23:08:18.921Z,100117.05
2023-03-11T23:10:47.507Z,100117.11
2023-03-11T23:13:16.155Z,100118.80
2023-03-11T23:15:45.751Z,100116.80
2023-03-11T23:18:15.852Z,100119.08
2023-03-11T23:20:44.688Z,100117.55
2023-03-11T23:23:13.296Z,100118.70
2023-03-11T23:25:41.489Z,100110.92
2023-03-11T23:28:09.496Z,100109.45
2023-03-11T23:30:40.540Z,100103.73
2023-03-11T23:33:08.593Z,100100.84
2023-03-11T23:35:40.847Z,100098.41
2023-03-11T23:38:09.561Z,100096.19
2023-03-11T23:40:40.459Z,100095.45
2023-03-11T23:43:08.501Z,100095.98
2023-03-11T23:45:36.474Z,100102.73
2023-03-11T23:48:04.453Z,100098.73
2023-03-11T23:50:32.241Z,100100.35
2023-03-11T23:53:00.118Z,100096.12
2023-03-11T23:55:27.944Z,100100.81
2023-03-11T23:57:55.814Z,100099.55
